createdAt,value
2018-06-27T00:00:29.959Z,4.27
2018-06-27T00:02:59.746Z,4.50
2018-06-27T00:05:29.573Z,4.70
2018-06-27T00:07:59.038Z,5.00
2018-06-27T00:10:28.887Z,4.67
2018-06-27T00:12:58.729Z,4.60
2018-06-27T00:15:28.625Z,4.67
2018-06-27T00:17:58.435Z,5.17
2018-06-27T00:20:28.235Z,5.17
2018-06-27T00:22:58.125Z,4.50
2018-06-27T00:25:27.950Z,4.80
2018-06-27T00:27:57.885Z,4.67
2018-06-27T00:30:28.107Z,4.73
2018-06-27T00:32:58.251Z,5.13
2018-06-27T00:35:28.167Z,5.00
2018-06-27T00:37:58.321Z,4.70
2018-06-27T00:40:28.173Z,4.70
2018-06-27T00:42:58.309Z,5.23
2018-06-27T00:45:28.895Z,5.07
2018-06-27T00:47:58.745Z,4.60
2018-06-27T00:50:28.737Z,5.47
2018-06-27T00:52:58.566Z,4.50
2018-06-27T00:55:28.401Z,4.50
2018-06-27T00:57:58.443Z,4.13
2018-06-27T01:00:28.746Z,4.60
2018-06-27T01:02:58.916Z,4.63
2018-06-27T01:05:29.319Z,5.10
2018-06-27T01:07:59.158Z,6.10
2018-06-27T01:10:29.244Z,6.17
2018-06-27T01:12:59.319Z,6.10
2018-06-27T01:15:30.261Z,5.80
2018-06-27T01:18:00.497Z,6.27
2018-06-27T01:20:30.683Z,5.80
2018-06-27T01:23:00.835Z,5.87
2018-06-27T01:25:31.283Z,5.73
2018-06-27T01:28:01.083Z,5.57
2018-06-27T01:30:30.916Z,5.97
2018-06-27T01:33:01.167Z,5.50
2018-06-27T01:35:30.965Z,5.67
2018-06-27T01:38:00.848Z,6.40
2018-06-27T01:40:30.618Z,5.87
2018-06-27T01:43:00.675Z,6.10
2018-06-27T01:45:30.676Z,6.73
2018-06-27T01:48:00.571Z,6.03
2018-06-27T01:50:30.421Z,6.00
2018-06-27T01:53:00.655Z,6.33
2018-06-27T01:55:30.531Z,6.77
2018-06-27T01:58:00.475Z,6.87
2018-06-27T02:00:29.927Z,6.63
2018-06-27T02:03:00.191Z,7.20
2018-06-27T02:05:30.723Z,7.00
2018-06-27T02:08:00.659Z,7.10
2018-06-27T02:10:30.425Z,6.73
2018-06-27T02:13:00.515Z,6.83
2018-06-27T02:15:30.440Z,6.53
2018-06-27T02:18:00.379Z,6.80
2018-06-27T02:20:30.585Z,6.97
2018-06-27T02:23:09.826Z,7.00
2018-06-27T02:25:40.325Z,7.37
2018-06-27T02:28:11.408Z,7.23
2018-06-27T02:30:41.319Z,7.93
2018-06-27T02:33:15.207Z,7.70
2018-06-27T02:35:45.133Z,7.50
2018-06-27T02:38:14.955Z,6.97
2018-06-27T02:40:44.907Z,7.10
2018-06-27T02:43:14.779Z,7.73
2018-06-27T02:45:44.863Z,7.73
2018-06-27T02:48:14.697Z,8.20
2018-06-27T02:50:45.143Z,8.53
2018-06-27T02:53:15.027Z,9.07
2018-06-27T02:55:45.201Z,8.47
2018-06-27T02:58:15.121Z,8.40
2018-06-27T03:00:45.000Z,8.80
2018-06-27T03:03:14.997Z,8.50
2018-06-27T03:05:45.128Z,8.83
2018-06-27T03:08:14.929Z,8.87
2018-06-27T03:10:45.405Z,9.13
2018-06-27T03:13:15.296Z,8.60
2018-06-27T03:15:45.576Z,8.13
2018-06-27T03:18:15.738Z,9.00
2018-06-27T03:20:45.592Z,9.07
2018-06-27T03:23:15.889Z,8.73
2018-06-27T03:25:45.787Z,9.53
2018-06-27T03:28:15.696Z,10.03
2018-06-27T03:30:45.819Z,8.97
2018-06-27T03:33:16.567Z,9.87
2018-06-27T03:35:46.716Z,9.30
2018-06-27T03:38:16.636Z,10.03
2018-06-27T03:40:46.572Z,9.67
2018-06-27T03:43:16.375Z,9.30
2018-06-27T03:45:46.220Z,9.30
2018-06-27T03:48:16.440Z,9.70
2018-06-27T03:50:46.346Z,9.47
2018-06-27T03:53:16.206Z,9.00
2018-06-27T03:55:46.026Z,9.20
2018-06-27T03:58:15.982Z,9.90
2018-06-27T04:07:57.564Z,8.33
2018-06-27T04:10:27.508Z,8.83
2018-06-27T04:12:57.457Z,8.70
2018-06-27T04:15:27.500Z,8.53
2018-06-27T04:17:57.488Z,7.40
2018-06-27T04:20:27.396Z,7.40
2018-06-27T04:22:57.233Z,8.47
2018-06-27T04:25:27.036Z,7.10
2018-06-27T04:27:56.932Z,7.60
2018-06-27T04:30:27.770Z,7.27
2018-06-27T04:32:57.730Z,6.50
2018-06-27T04:35:27.634Z,8.03
2018-06-27T04:37:57.482Z,6.63
2018-06-27T04:40:27.331Z,6.80
2018-06-27T04:42:57.332Z,7.10
2018-06-27T04:45:27.489Z,6.50
2018-06-27T04:47:57.442Z,7.67
2018-06-27T04:50:27.872Z,6.83
2018-06-27T04:52:58.261Z,6.80
2018-06-27T04:55:28.153Z,6.42
2018-06-27T04:57:58.593Z,6.40
2018-06-27T05:00:29.047Z,7.25
2018-06-27T05:02:59.648Z,6.70
2018-06-27T05:05:30.350Z,6.25
2018-06-27T05:08:01.280Z,6.45
2018-06-27T05:10:31.710Z,6.62
2018-06-27T05:13:02.202Z,6.17
2018-06-27T05:15:32.700Z,6.45
2018-06-27T05:18:03.452Z,6.35
2018-06-27T05:20:33.982Z,6.70
2018-06-27T05:23:04.413Z,6.90
2018-06-27T05:25:34.884Z,6.53
2018-06-27T05:28:05.284Z,5.83
2018-06-27T05:30:35.832Z,6.20
2018-06-27T05:33:06.506Z,7.10
2018-06-27T05:35:36.880Z,6.25
2018-06-27T05:38:07.582Z,6.50
2018-06-27T05:40:38.256Z,6.83
2018-06-27T05:43:08.682Z,6.60
2018-06-27T05:45:39.452Z,6.90
2018-06-27T05:48:10.075Z,6.83
2018-06-27T05:50:42.129Z,6.85
2018-06-27T05:53:12.636Z,6.53
2018-06-27T05:55:43.088Z,6.65
2018-06-27T05:58:13.029Z,6.83
2018-06-27T06:00:43.082Z,13.73
2018-06-27T06:03:13.242Z,7.10
2018-06-27T06:05:43.074Z,11.50
2018-06-27T06:08:12.917Z,8.90
2018-06-27T06:10:42.803Z,7.77
2018-06-27T06:13:12.888Z,9.33
2018-06-27T06:15:42.767Z,7.87
2018-06-27T06:18:12.703Z,7.30
2018-06-27T06:20:42.474Z,7.40
2018-06-27T06:23:12.384Z,7.90
2018-06-27T06:25:42.319Z,7.63
2018-06-27T06:28:12.136Z,7.37
2018-06-27T06:30:42.225Z,7.63
2018-06-27T06:33:11.977Z,7.03
2018-06-27T06:35:41.794Z,7.77
2018-06-27T06:38:11.710Z,7.27
2018-06-27T06:40:41.587Z,7.40
2018-06-27T06:43:11.612Z,7.40
2018-06-27T06:45:41.404Z,7.73
2018-06-27T06:48:11.258Z,7.73
2018-06-27T06:50:41.286Z,8.03
2018-06-27T06:53:11.128Z,7.40
2018-06-27T06:55:41.215Z,7.33
2018-06-27T06:58:11.072Z,7.40
2018-06-27T07:00:40.846Z,7.10
2018-06-27T07:03:10.701Z,6.87
2018-06-27T07:05:40.569Z,7.63
2018-06-27T07:08:10.455Z,7.53
2018-06-27T07:10:40.244Z,7.40
2018-06-27T07:13:10.031Z,7.73
2018-06-27T07:15:40.328Z,7.60
2018-06-27T07:18:10.219Z,7.33
2018-06-27T07:20:40.075Z,7.23
2018-06-27T07:23:10.103Z,7.43
2018-06-27T07:25:40.253Z,7.27
2018-06-27T07:28:10.298Z,7.87
2018-06-27T07:30:41.101Z,7.40
2018-06-27T07:33:10.910Z,7.80
2018-06-27T07:35:41.053Z,7.33
2018-06-27T07:38:10.955Z,7.92
2018-06-27T07:40:41.379Z,7.70
2018-06-27T07:43:11.277Z,7.37
2018-06-27T07:45:41.163Z,6.35
2018-06-27T07:48:11.631Z,7.08
2018-06-27T07:50:42.973Z,6.57
2018-06-27T07:53:13.533Z,7.00
2018-06-27T07:55:43.943Z,6.47
2018-06-27T07:58:14.437Z,5.90
2018-06-27T08:00:44.859Z,6.35
2018-06-27T08:03:15.404Z,6.20
2018-06-27T08:05:45.995Z,6.42
2018-06-27T08:08:16.889Z,6.05
2018-06-27T08:10:47.305Z,7.08
2018-06-27T08:13:18.459Z,6.58
2018-06-27T08:15:48.836Z,6.90
2018-06-27T08:18:19.257Z,6.95
2018-06-27T08:20:49.615Z,6.03
2018-06-27T08:23:20.301Z,6.10
2018-06-27T08:25:52.083Z,6.60
2018-06-27T08:28:23.723Z,6.55
2018-06-27T08:30:54.105Z,6.10
2018-06-27T08:33:24.517Z,5.60
2018-06-27T08:35:54.999Z,4.83
2018-06-27T08:38:25.419Z,4.70
2018-06-27T08:40:55.977Z,5.87
2018-06-27T08:43:26.335Z,4.83
2018-06-27T08:45:56.718Z,5.08
2018-06-27T08:48:27.791Z,4.78
2018-06-27T08:50:59.574Z,4.83
2018-06-27T08:53:30.080Z,4.85
2018-06-27T08:56:00.442Z,5.10
2018-06-27T08:58:30.924Z,4.87
2018-06-27T09:01:01.259Z,4.70
2018-06-27T09:03:32.050Z,4.58
2018-06-27T09:13:14.207Z,2.83
2018-06-27T09:15:44.605Z,3.15
2018-06-27T09:18:15.393Z,2.83
2018-06-27T09:20:46.121Z,2.90
2018-06-27T09:23:16.549Z,3.00
2018-06-27T09:25:47.037Z,2.58
2018-06-27T09:28:17.527Z,3.02
2018-06-27T09:30:47.819Z,2.80
2018-06-27T09:33:18.308Z,2.50
2018-06-27T09:35:48.644Z,2.70
2018-06-27T09:38:19.010Z,2.70
2018-06-27T09:40:49.336Z,2.50
2018-06-27T09:43:19.736Z,2.40
2018-06-27T09:45:50.060Z,2.20
2018-06-27T09:48:20.421Z,2.60
2018-06-27T09:50:50.710Z,2.90
2018-06-27T09:53:21.167Z,2.55
2018-06-27T09:55:51.562Z,2.67
2018-06-27T09:58:22.018Z,2.62
2018-06-27T10:00:52.466Z,2.47
2018-06-27T10:03:23.062Z,2.40
2018-06-27T10:05:53.570Z,2.47
2018-06-27T10:08:23.965Z,2.62
2018-06-27T10:10:54.803Z,2.22
2018-06-27T10:13:25.172Z,2.47
2018-06-27T10:15:55.672Z,2.80
2018-06-27T10:18:26.041Z,2.80
2018-06-27T10:20:56.363Z,2.62
2018-06-27T10:23:26.717Z,2.90
2018-06-27T10:25:57.055Z,2.50
2018-06-27T10:28:27.556Z,2.58
2018-06-27T10:30:58.021Z,2.80
2018-06-27T10:33:28.455Z,2.35
2018-06-27T10:35:58.820Z,2.70
2018-06-27T10:38:29.225Z,2.17
2018-06-27T10:40:59.627Z,2.60
2018-06-27T10:43:30.023Z,2.35
2018-06-27T10:46:00.382Z,2.35
2018-06-27T10:48:30.791Z,2.42
2018-06-27T10:51:01.162Z,2.40
2018-06-27T10:53:31.548Z,2.20
2018-06-27T10:56:02.822Z,2.10
2018-06-27T10:58:33.184Z,2.30
2018-06-27T11:01:03.863Z,2.40
2018-06-27T11:03:34.421Z,2.30
2018-06-27T11:06:05.180Z,2.30
2018-06-27T11:08:35.872Z,2.20
2018-06-27T11:11:06.346Z,2.20
2018-06-27T11:13:36.697Z,2.17
2018-06-27T11:16:07.151Z,2.45
2018-06-27T11:18:37.520Z,2.17
2018-06-27T11:21:07.936Z,2.37
2018-06-27T11:23:38.274Z,2.55
2018-06-27T11:26:09.404Z,1.92
2018-06-27T11:28:39.798Z,2.20
2018-06-27T11:31:10.647Z,2.20
2018-06-27T11:33:41.795Z,1.92
2018-06-27T11:36:13.050Z,2.52
2018-06-27T11:38:43.530Z,2.40
2018-06-27T11:41:13.984Z,2.15
2018-06-27T11:43:44.406Z,2.08
2018-06-27T11:46:15.522Z,2.20
2018-06-27T11:48:47.164Z,2.22
2018-06-27T11:51:17.946Z,2.15
2018-06-27T11:53:48.319Z,2.37
2018-06-27T11:56:18.726Z,2.10
2018-06-27T11:58:49.074Z,2.10
2018-06-27T12:01:20.389Z,2.08
2018-06-27T12:03:50.864Z,2.27
2018-06-27T12:06:21.412Z,1.77
2018-06-27T12:08:51.861Z,2.10
2018-06-27T12:11:22.331Z,2.30
2018-06-27T12:13:52.705Z,2.52
2018-06-27T12:16:23.453Z,2.25
2018-06-27T12:18:54.318Z,2.20
2018-06-27T12:21:25.081Z,2.40
2018-06-27T12:23:55.464Z,2.40
2018-06-27T12:26:26.364Z,2.02
2018-06-27T12:28:56.882Z,2.30
2018-06-27T12:31:27.646Z,2.22
2018-06-27T12:33:58.269Z,2.22
2018-06-27T12:36:28.689Z,2.05
2018-06-27T12:38:59.106Z,2.27
2018-06-27T12:41:29.526Z,1.90
2018-06-27T12:43:59.890Z,2.10
2018-06-27T12:46:30.532Z,2.40
2018-06-27T12:49:00.980Z,2.15
2018-06-27T12:51:31.351Z,2.20
2018-06-27T12:54:01.752Z,2.22
2018-06-27T12:56:32.135Z,2.33
2018-06-27T12:59:02.816Z,1.90
2018-06-27T13:01:33.309Z,2.30
2018-06-27T13:04:03.771Z,2.42
2018-06-27T13:06:34.374Z,2.25
2018-06-27T13:09:07.342Z,1.85
2018-06-27T13:11:38.800Z,2.50
2018-06-27T13:14:09.256Z,2.08
2018-06-27T13:16:39.623Z,2.12
2018-06-27T13:19:10.027Z,2.08
2018-06-27T13:21:40.017Z,2.10
2018-06-27T13:24:10.397Z,1.90
2018-06-27T13:26:40.773Z,2.37
2018-06-27T13:29:11.203Z,2.02
2018-06-27T13:31:41.667Z,2.37
2018-06-27T13:34:12.085Z,2.00
2018-06-27T13:36:42.438Z,2.45
2018-06-27T13:39:12.773Z,2.12
2018-06-27T13:41:43.174Z,1.82
2018-06-27T13:44:13.537Z,2.45
2018-06-27T13:46:43.953Z,2.00
2018-06-27T13:49:14.614Z,1.77
2018-06-27T13:51:46.235Z,2.00
2018-06-27T13:54:16.620Z,2.30
2018-06-27T13:56:47.153Z,2.42
2018-06-27T13:59:17.872Z,2.27
2018-06-27T14:01:48.407Z,2.42
2018-06-27T14:04:18.783Z,2.10
2018-06-27T14:06:49.225Z,2.05
2018-06-27T14:09:19.827Z,2.50
2018-06-27T14:11:50.121Z,2.22
2018-06-27T14:14:20.561Z,2.40
2018-06-27T14:16:51.519Z,2.27
2018-06-27T14:19:22.492Z,2.37
2018-06-27T14:21:52.867Z,2.47
2018-06-27T14:25:07.358Z,2.30
2018-06-27T14:27:38.227Z,2.40
2018-06-27T14:30:09.220Z,2.37
2018-06-27T14:32:40.110Z,2.15
2018-06-27T14:35:12.699Z,2.37
2018-06-27T14:37:44.638Z,2.70
2018-06-27T14:40:17.399Z,2.17
2018-06-27T14:42:48.825Z,2.30
2018-06-27T14:45:20.297Z,2.30
2018-06-27T14:47:53.515Z,2.27
2018-06-27T14:50:25.729Z,2.10
2018-06-27T14:52:57.813Z,2.40
2018-06-27T14:55:31.031Z,2.30
2018-06-27T14:58:01.999Z,2.35
2018-06-27T15:00:32.939Z,2.52
2018-06-27T15:03:06.643Z,2.55
2018-06-27T15:05:37.195Z,2.62
2018-06-27T15:08:07.843Z,2.72
2018-06-27T15:10:40.300Z,2.45
2018-06-27T15:13:10.719Z,2.47
2018-06-27T15:15:41.131Z,2.50
2018-06-27T15:18:11.601Z,2.17
2018-06-27T15:20:42.068Z,2.42
2018-06-27T15:23:13.036Z,2.98
2018-06-27T15:25:43.433Z,2.65
2018-06-27T15:28:15.810Z,2.80
2018-06-27T15:30:46.395Z,2.85
2018-06-27T15:33:16.788Z,2.72
2018-06-27T15:35:47.229Z,3.17
2018-06-27T15:38:17.568Z,2.30
2018-06-27T15:40:48.008Z,2.80
2018-06-27T15:43:18.980Z,2.45
2018-06-27T15:45:49.316Z,2.45
2018-06-27T15:48:20.212Z,2.42
2018-06-27T15:50:50.613Z,2.52
2018-06-27T15:53:20.987Z,2.30
2018-06-27T15:55:51.354Z,2.65
2018-06-27T15:58:21.839Z,2.50
2018-06-27T16:00:52.927Z,2.60
2018-06-27T16:03:23.673Z,2.50
2018-06-27T16:05:53.657Z,2.90
2018-06-27T16:08:24.381Z,2.85
2018-06-27T16:10:54.963Z,2.70
2018-06-27T16:13:25.341Z,2.80
2018-06-27T16:15:56.083Z,2.55
2018-06-27T16:18:26.488Z,2.70
2018-06-27T16:20:57.316Z,2.62
2018-06-27T16:23:28.078Z,2.60
2018-06-27T16:25:58.803Z,2.70
2018-06-27T16:28:30.199Z,2.58
2018-06-27T16:31:00.600Z,2.58
2018-06-27T16:33:31.511Z,2.40
2018-06-27T16:36:02.347Z,2.60
2018-06-27T16:38:32.791Z,2.60
2018-06-27T16:41:03.223Z,2.52
2018-06-27T16:43:33.715Z,2.62
2018-06-27T16:46:04.109Z,2.80
2018-06-27T16:48:34.458Z,2.52
2018-06-27T16:51:04.960Z,2.55
2018-06-27T16:53:35.453Z,2.50
2018-06-27T16:56:05.932Z,2.40
2018-06-27T16:58:37.124Z,2.08
2018-06-27T17:01:07.792Z,1.92
2018-06-27T17:03:38.578Z,2.20
2018-06-27T17:06:09.001Z,2.00
2018-06-27T17:08:39.611Z,2.33
2018-06-27T17:11:10.254Z,1.82
2018-06-27T17:13:41.396Z,1.98
2018-06-27T17:16:12.218Z,2.05
2018-06-27T17:18:43.787Z,2.30
2018-06-27T17:21:14.612Z,1.87
2018-06-27T17:23:45.070Z,1.77
2018-06-27T17:26:15.622Z,2.08
2018-06-27T17:28:46.015Z,1.80
2018-06-27T17:31:16.493Z,2.20
2018-06-27T17:33:47.091Z,1.77
2018-06-27T17:36:17.535Z,2.20
2018-06-27T17:38:48.708Z,1.90
2018-06-27T17:41:19.675Z,1.95
2018-06-27T17:43:50.148Z,2.20
2018-06-27T17:46:20.507Z,2.25
2018-06-27T17:48:51.006Z,2.27
2018-06-27T17:51:21.492Z,2.02
2018-06-27T17:53:52.139Z,2.20
2018-06-27T17:56:23.026Z,2.35
2018-06-27T17:58:53.421Z,1.70
2018-06-27T18:01:23.898Z,1.90
2018-06-27T18:03:55.452Z,2.00
2018-06-27T18:06:26.621Z,2.10
2018-06-27T18:08:57.091Z,1.85
2018-06-27T18:11:27.566Z,1.90
2018-06-27T18:13:57.934Z,1.75
2018-06-27T18:16:28.350Z,1.85
2018-06-27T18:18:58.763Z,2.30
2018-06-27T18:21:30.547Z,2.08
2018-06-27T18:24:01.314Z,2.30
2018-06-27T18:26:32.436Z,2.08
2018-06-27T18:29:03.369Z,2.02
2018-06-27T18:31:34.510Z,1.72
2018-06-27T18:34:07.284Z,1.98
2018-06-27T18:36:37.779Z,1.85
2018-06-27T18:39:10.471Z,2.08
2018-06-27T18:41:41.154Z,2.27
2018-06-27T18:44:13.293Z,2.08
2018-06-27T18:46:44.898Z,1.80
2018-06-27T18:49:16.460Z,2.15
2018-06-27T18:51:46.836Z,2.35
2018-06-27T18:54:18.246Z,1.60
2018-06-27T18:56:49.206Z,1.82
2018-06-27T18:59:20.371Z,1.85
2018-06-27T19:01:50.874Z,2.20
2018-06-27T19:04:21.904Z,1.47
2018-06-27T19:06:52.248Z,1.50
2018-06-27T19:09:25.855Z,1.87
2018-06-27T19:11:56.810Z,1.40
2018-06-27T19:14:28.676Z,1.65
2018-06-27T19:16:59.524Z,1.30
2018-06-27T19:19:29.900Z,1.50
2018-06-27T19:22:00.495Z,1.40
2018-06-27T19:24:31.049Z,1.25
2018-06-27T19:27:02.082Z,1.32
2018-06-27T19:29:32.756Z,1.72
2018-06-27T19:32:04.217Z,1.80
2018-06-27T19:34:34.759Z,1.60
2018-06-27T19:37:05.148Z,1.45
2018-06-27T19:39:37.936Z,1.50
2018-06-27T19:42:08.866Z,1.40
2018-06-27T19:44:39.204Z,1.42
2018-06-27T19:47:09.665Z,1.67
2018-06-27T19:49:40.140Z,1.90
2018-06-27T19:52:10.536Z,1.70
2018-06-27T19:54:40.988Z,1.55
2018-06-27T19:57:13.650Z,1.82
2018-06-27T19:59:44.324Z,2.10
2018-06-27T20:02:15.170Z,1.60
2018-06-27T20:04:46.260Z,1.47
2018-06-27T20:11:25.968Z,1.35
2018-06-27T20:13:56.353Z,1.32
2018-06-27T20:16:26.893Z,1.35
2018-06-27T20:18:57.348Z,1.25
2018-06-27T20:21:30.732Z,1.87
2018-06-27T20:24:01.256Z,1.62
2018-06-27T20:26:32.404Z,2.10
2018-06-27T20:29:02.896Z,1.45
2018-06-27T20:31:33.374Z,1.50
2018-06-27T20:34:03.822Z,1.98
2018-06-27T20:36:34.262Z,1.90
2018-06-27T20:39:08.346Z,2.10
2018-06-27T20:41:40.276Z,2.30
2018-06-27T20:45:07.522Z,2.00
2018-06-27T20:47:37.408Z,1.90
2018-06-27T20:50:07.432Z,2.00
2018-06-27T20:52:37.350Z,1.80
2018-06-27T20:55:07.482Z,2.23
2018-06-27T20:57:37.409Z,2.30
2018-06-27T21:00:08.516Z,2.23
2018-06-27T21:02:38.374Z,2.10
2018-06-27T21:05:08.738Z,2.20
2018-06-27T21:07:38.674Z,2.13
2018-06-27T21:10:08.985Z,2.30
2018-06-27T21:12:38.822Z,2.90
2018-06-27T21:15:09.446Z,2.33
2018-06-27T21:17:39.324Z,2.60
2018-06-27T21:20:10.156Z,2.80
2018-06-27T21:22:40.312Z,2.40
2018-06-27T21:25:10.990Z,2.50
2018-06-27T21:27:40.896Z,2.30
2018-06-27T21:30:11.359Z,2.53
2018-06-27T21:32:41.306Z,2.70
2018-06-27T21:35:11.230Z,2.70
2018-06-27T21:37:41.436Z,2.33
2018-06-27T21:40:12.989Z,2.30
2018-06-27T21:42:43.848Z,2.10
2018-06-27T21:45:15.180Z,2.53
2018-06-27T21:47:44.950Z,2.30
2018-06-27T21:50:14.932Z,2.43
2018-06-27T21:52:45.536Z,2.60
2018-06-27T21:55:15.460Z,2.30
2018-06-27T21:57:45.628Z,2.30
2018-06-27T22:00:16.702Z,2.07
2018-06-27T22:02:46.668Z,3.37
2018-06-27T22:05:16.830Z,2.30
2018-06-27T22:07:46.669Z,2.30
2018-06-27T22:10:16.527Z,2.10
2018-06-27T22:12:46.279Z,2.30
2018-06-27T22:15:16.080Z,2.03
2018-06-27T22:17:45.937Z,1.80
2018-06-27T22:20:15.791Z,2.20
2018-06-27T22:22:45.613Z,2.33
2018-06-27T22:25:15.467Z,2.00
2018-06-27T22:27:45.367Z,2.30
2018-06-27T22:30:14.846Z,2.40
2018-06-27T22:32:45.146Z,2.10
2018-06-27T22:35:15.055Z,2.10
2018-06-27T22:37:44.908Z,2.07
2018-06-27T22:40:14.406Z,1.90
2018-06-27T22:42:45.867Z,2.00
2018-06-27T22:45:15.707Z,2.13
2018-06-27T22:47:45.524Z,1.90
2018-06-27T22:50:15.398Z,1.80
2018-06-27T22:52:45.330Z,2.00
2018-06-27T22:55:15.238Z,2.20
2018-06-27T22:57:45.039Z,1.90
2018-06-27T23:00:15.502Z,1.60
2018-06-27T23:02:45.388Z,2.10
2018-06-27T23:05:17.297Z,2.07
2018-06-27T23:07:47.076Z,2.20
2018-06-27T23:10:16.931Z,2.23
2018-06-27T23:12:46.819Z,2.17
2018-06-27T23:15:16.651Z,1.90
2018-06-27T23:17:46.597Z,1.83
2018-06-27T23:20:16.469Z,2.10
2018-06-27T23:22:48.163Z,2.00
2018-06-27T23:25:17.989Z,2.13
2018-06-27T23:27:47.786Z,2.10
2018-06-27T23:30:17.901Z,2.00
2018-06-27T23:32:47.939Z,1.93
2018-06-27T23:35:17.810Z,2.03
2018-06-27T23:37:48.478Z,2.20
2018-06-27T23:40:18.731Z,2.00
2018-06-27T23:42:48.246Z,2.00
2018-06-27T23:45:18.175Z,1.97
2018-06-27T23:47:47.985Z,2.03
2018-06-27T23:50:17.836Z,1.83
2018-06-27T23:52:48.322Z,1.93
2018-06-27T23:55:18.091Z,1.93
2018-06-27T23:57:48.011Z,2.00
